Cavern City, NM

7:53 PM MDT on October 25, 2014 (GMT -0600)
Guadalupe Pass | Change Station
CLOSE
Current Station
Airport
Location: Guadalupe Pass,
Elevation: 5453 ft
Nearby Weather Stations

Elev 5453 ft 31.83 °N, 104.81 °W | Updated 1 hour ago

Clear
Clear
70 °F
Feels Like 70 °F
N
16
Wind Variable Wind from WSW

Today
High -- | Low -- °F
--% Chance of Precip.
Yesterday
High -- | Low -- °F
Precip. -- in
7:08 AM 6:13 PM
Waxing Crescent, 5% visible
Pressure 30.05 in
Visibility 10.0 miles
Clouds Clear
Dew Point 37 °F
Humidity 30%
Rainfall 0.00 in
Snow Depth Not available.
UV 0 out of 12
Pollen 5.70 out of 12
Air Quality Not available.
Flu Activity Sporadic
METAR KGDP 260051Z AUTO 25014KT 10SM CLR 21/03 A3024 RMK AO2 SLP176 T02110028

More Conditions Fewer Conditions

Pressure 30.05 in
Visibility 10.0 miles
Clouds Clear
Dew Point 37 °F
Humidity 30%
Rainfall 0.00 in
Snow Depth Not available.
UV 0 out of 12
Pollen 5.70 out of 12
Air Quality Not available.
Flu Activity Sporadic
METAR KGDP 260051Z AUTO 25014KT 10SM CLR 21/03 A3024 RMK AO2 SLP176 T02110028

More Conditions Fewer Conditions

10-Day Weather Forecast

Almanac

Astronomy

Oct. 25, 2014 Rise Set
Actual Time 7:08 AM MDT 6:13 PM MDT
Civil Twilight 6:43 AM MDT 6:38 PM MDT
Nautical Twilight 6:14 AM MDT 7:07 PM MDT
Astronomical Twilight 5:46 AM MDT 7:35 PM MDT
Moon 8:45 AM MDT (10/25) 7:43 PM MDT (10/25)
Length of Visible Light 11h 54m
Length of Day
11h 04m
Tomorrow will be 1m 49s shorter.
Waxing Crescent, 5% of the Moon is Illuminated
Today
Waxing Crescent
Oct 30
First Quarter
Nov 6
Full
Nov 14
Last Quarter
Nov 22
New

Today's Extremes

State Highs State Lows

Community

WunderPhotos

Upload Photos

1,765,071 photos uploaded!

Nearby

Snow Depth

Station Depth Elevation
Sierra Blanca 1 in 10280 ft
Wesner Springs 0 in 11120 ft
Santa Fe 1 in 11445 ft
Silver Creek Divide 0 in 9000 ft
Gallegos Peak 0 in 9800 ft

Earthquake Activity

City Distance Mag. Time & Date
No recent earthquake activity has been reported nearby.
Minimum magnitude displayed is 2.5.

Coastal Water Temperatures

Place Temperature
No Stations Reporting

Nearby Weather Stations